sensor_id;sensor_type;location;lat;lon;timestamp;temperature;humidity
41838;DHT22;27511;52.042;5.178;2023-02-02T00:01:16;10.10;99.90
41838;DHT22;27511;52.042;5.178;2023-02-02T00:03:42;10.10;99.90
41838;DHT22;27511;52.042;5.178;2023-02-02T00:06:07;10.10;99.90
41838;DHT22;27511;52.042;5.178;2023-02-02T00:08:33;10.10;99.90
41838;DHT22;27511;52.042;5.178;2023-02-02T00:11:00;10.20;99.90
41838;DHT22;27511;52.042;5.178;2023-02-02T00:13:26;10.10;99.90
41838;DHT22;27511;52.042;5.178;2023-02-02T00:15:52;10.00;99.90
41838;DHT22;27511;52.042;5.178;2023-02-02T00:18:17;10.00;99.90
41838;DHT22;27511;52.042;5.178;2023-02-02T00:20:43;9.90;99.90
41838;DHT22;27511;52.042;5.178;2023-02-02T00:23:09;9.90;99.90
41838;DHT22;27511;52.042;5.178;2023-02-02T00:25:35;9.90;99.90
41838;DHT22;27511;52.042;5.178;2023-02-02T00:28:00;10.00;99.90
41838;DHT22;27511;52.042;5.178;2023-02-02T00:30:26;10.00;99.90
41838;DHT22;27511;52.042;5.178;2023-02-02T00:32:51;10.00;99.90
41838;DHT22;27511;52.042;5.178;2023-02-02T00:35:17;9.90;99.90
41838;DHT22;27511;52.042;5.178;2023-02-02T00:37:43;9.80;99.90
41838;DHT22;27511;52.042;5.178;2023-02-02T00:40:09;9.90;99.90
41838;DHT22;27511;52.042;5.178;2023-02-02T00:42:34;9.80;99.90
41838;DHT22;27511;52.042;5.178;2023-02-02T00:45:00;9.90;99.90
41838;DHT22;27511;52.042;5.178;2023-02-02T00:47:42;10.00;99.90
41838;DHT22;27511;52.042;5.178;2023-02-02T00:50:08;9.90;99.90
41838;DHT22;27511;52.042;5.178;2023-02-02T00:52:34;9.80;99.90
41838;DHT22;27511;52.042;5.178;2023-02-02T00:54:59;9.80;99.90
41838;DHT22;27511;52.042;5.178;2023-02-02T00:57:25;9.70;99.90
41838;DHT22;27511;52.042;5.178;2023-02-02T00:59:50;9.60;99.90
41838;DHT22;27511;52.042;5.178;2023-02-02T01:02:16;9.50;99.90
41838;DHT22;27511;52.042;5.178;2023-02-02T01:04:41;9.50;99.90
41838;DHT22;27511;52.042;5.178;2023-02-02T01:07:07;9.30;99.90
41838;DHT22;27511;52.042;5.178;2023-02-02T01:09:32;9.20;99.90
41838;DHT22;27511;52.042;5.178;2023-02-02T01:11:58;9.30;99.90
41838;DHT22;27511;52.042;5.178;2023-02-02T01:14:23;9.50;99.90
41838;DHT22;27511;52.042;5.178;2023-02-02T01:16:49;9.60;99.90
41838;DHT22;27511;52.042;5.178;2023-02-02T01:19:14;9.60;99.90
41838;DHT22;27511;52.042;5.178;2023-02-02T01:21:40;9.70;99.90
41838;DHT22;27511;52.042;5.178;2023-02-02T01:24:06;9.60;99.90
41838;DHT22;27511;52.042;5.178;2023-02-02T01:26:31;9.60;99.90
41838;DHT22;27511;52.042;5.178;2023-02-02T01:28:57;9.60;99.90
41838;DHT22;27511;52.042;5.178;2023-02-02T01:31:22;9.70;99.90
41838;DHT22;27511;52.042;5.178;2023-02-02T01:33:48;9.70;99.90
41838;DHT22;27511;52.042;5.178;2023-02-02T01:36:15;9.70;99.90
41838;DHT22;27511;52.042;5.178;2023-02-02T01:38:40;9.70;99.90
41838;DHT22;27511;52.042;5.178;2023-02-02T01:41:06;9.60;99.90
41838;DHT22;27511;52.042;5.178;2023-02-02T01:46:10;9.70;99.90
41838;DHT22;27511;52.042;5.178;2023-02-02T01:48:36;9.80;99.90
41838;DHT22;27511;52.042;5.178;2023-02-02T01:51:04;9.80;99.90
41838;DHT22;27511;52.042;5.178;2023-02-02T01:53:30;9.80;99.90
41838;DHT22;27511;52.042;5.178;2023-02-02T01:55:57;9.90;99.90
41838;DHT22;27511;52.042;5.178;2023-02-02T01:58:28;10.00;99.90
41838;DHT22;27511;52.042;5.178;2023-02-02T02:00:54;10.10;99.90
41838;DHT22;27511;52.042;5.178;2023-02-02T02:03:20;10.10;99.90
41838;DHT22;27511;52.042;5.178;2023-02-02T02:06:00;10.10;99.90
41838;DHT22;27511;52.042;5.178;2023-02-02T02:08:30;10.10;99.90
41838;DHT22;27511;52.042;5.178;2023-02-02T02:10:56;10.10;99.90
41838;DHT22;27511;52.042;5.178;2023-02-02T02:13:23;10.10;99.90
41838;DHT22;27511;52.042;5.178;2023-02-02T02:21:31;10.00;99.90
41838;DHT22;27511;52.042;5.178;2023-02-02T02:24:35;10.00;99.90
41838;DHT22;27511;52.042;5.178;2023-02-02T02:38:03;9.80;99.90
41838;DHT22;27511;52.042;5.178;2023-02-02T02:40:50;9.90;99.90
41838;DHT22;27511;52.042;5.178;2023-02-02T02:43:35;9.90;99.90
41838;DHT22;27511;52.042;5.178;2023-02-02T02:46:02;10.00;99.90
41838;DHT22;27511;52.042;5.178;2023-02-02T02:48:28;10.00;99.90
41838;DHT22;27511;52.042;5.178;2023-02-02T02:51:03;10.10;99.90
41838;DHT22;27511;52.042;5.178;2023-02-02T02:53:29;10.10;99.90
41838;DHT22;27511;52.042;5.178;2023-02-02T02:56:12;10.10;99.90
41838;DHT22;27511;52.042;5.178;2023-02-02T02:58:48;10.20;99.90
41838;DHT22;27511;52.042;5.178;2023-02-02T03:01:22;10.10;99.90
41838;DHT22;27511;52.042;5.178;2023-02-02T03:04:02;10.00;99.90
41838;DHT22;27511;52.042;5.178;2023-02-02T03:06:35;10.10;99.90
41838;DHT22;27511;52.042;5.178;2023-02-02T03:09:05;10.10;99.90
41838;DHT22;27511;52.042;5.178;2023-02-02T03:11:33;10.10;99.90
41838;DHT22;27511;52.042;5.178;2023-02-02T03:13:59;10.00;99.90
41838;DHT22;27511;52.042;5.178;2023-02-02T03:16:25;10.00;99.90
41838;DHT22;27511;52.042;5.178;2023-02-02T03:18:50;10.10;99.90
41838;DHT22;27511;52.042;5.178;2023-02-02T03:21:16;10.10;99.90
41838;DHT22;27511;52.042;5.178;2023-02-02T03:23:41;10.30;99.90
41838;DHT22;27511;52.042;5.178;2023-02-02T03:26:07;10.10;99.90
41838;DHT22;27511;52.042;5.178;2023-02-02T03:28:33;10.10;99.90
41838;DHT22;27511;52.042;5.178;2023-02-02T03:30:59;10.20;99.90
41838;DHT22;27511;52.042;5.178;2023-02-02T03:33:25;10.20;99.90
41838;DHT22;27511;52.042;5.178;2023-02-02T03:35:51;10.20;99.90
41838;DHT22;27511;52.042;5.178;2023-02-02T03:38:16;10.20;99.90
41838;DHT22;27511;52.042;5.178;2023-02-02T03:40:42;10.10;99.90
41838;DHT22;27511;52.042;5.178;2023-02-02T03:43:07;10.20;99.90
41838;DHT22;27511;52.042;5.178;2023-02-02T03:45:33;10.00;99.90
41838;DHT22;27511;52.042;5.178;2023-02-02T03:48:05;10.00;99.90
41838;DHT22;27511;52.042;5.178;2023-02-02T03:50:31;10.10;99.90
41838;DHT22;27511;52.042;5.178;2023-02-02T03:52:56;10.20;99.90
41838;DHT22;27511;52.042;5.178;2023-02-02T03:55:22;10.10;99.90
41838;DHT22;27511;52.042;5.178;2023-02-02T03:57:47;10.20;99.90
41838;DHT22;27511;52.042;5.178;2023-02-02T04:00:13;10.20;99.90
41838;DHT22;27511;52.042;5.178;2023-02-02T04:02:38;10.20;99.90
41838;DHT22;27511;52.042;5.178;2023-02-02T04:05:04;10.20;99.90
41838;DHT22;27511;52.042;5.178;2023-02-02T04:07:30;10.20;99.90
41838;DHT22;27511;52.042;5.178;2023-02-02T04:09:55;10.30;99.90
41838;DHT22;27511;52.042;5.178;2023-02-02T04:12:21;10.40;99.90
41838;DHT22;27511;52.042;5.178;2023-02-02T04:14:46;10.50;99.90
41838;DHT22;27511;52.042;5.178;2023-02-02T04:17:12;10.50;99.90
41838;DHT22;27511;52.042;5.178;2023-02-02T04:19:37;10.40;99.90
41838;DHT22;27511;52.042;5.178;2023-02-02T04:22:02;10.40;99.90
41838;DHT22;27511;52.042;5.178;2023-02-02T04:24:28;10.40;99.90
41838;DHT22;27511;52.042;5.178;2023-02-02T04:26:53;10.40;99.90
41838;DHT22;27511;52.042;5.178;2023-02-02T04:29:19;10.30;99.90
41838;DHT22;27511;52.042;5.178;2023-02-02T04:31:44;10.30;99.90
41838;DHT22;27511;52.042;5.178;2023-02-02T04:34:10;10.40;99.90
41838;DHT22;27511;52.042;5.178;2023-02-02T04:36:35;10.40;99.90
41838;DHT22;27511;52.042;5.178;2023-02-02T04:39:01;10.40;99.90
41838;DHT22;27511;52.042;5.178;2023-02-02T04:41:26;10.40;99.90
41838;DHT22;27511;52.042;5.178;2023-02-02T04:43:52;10.40;99.90
41838;DHT22;27511;52.042;5.178;2023-02-02T04:46:17;10.50;99.90
41838;DHT22;27511;52.042;5.178;2023-02-02T04:48:43;10.60;99.90
41838;DHT22;27511;52.042;5.178;2023-02-02T04:51:09;10.50;99.90
41838;DHT22;27511;52.042;5.178;2023-02-02T04:53:35;10.50;99.90
41838;DHT22;27511;52.042;5.178;2023-02-02T04:56:05;10.50;99.90
41838;DHT22;27511;52.042;5.178;2023-02-02T04:58:31;10.40;99.90
41838;DHT22;27511;52.042;5.178;2023-02-02T05:00:56;10.40;99.90
41838;DHT22;27511;52.042;5.178;2023-02-02T05:03:22;10.40;99.90
41838;DHT22;27511;52.042;5.178;2023-02-02T05:05:47;10.30;99.90
41838;DHT22;27511;52.042;5.178;2023-02-02T05:08:15;10.30;99.90
41838;DHT22;27511;52.042;5.178;2023-02-02T05:10:41;10.30;99.90
41838;DHT22;27511;52.042;5.178;2023-02-02T05:13:07;10.40;99.90
41838;DHT22;27511;52.042;5.178;2023-02-02T05:15:32;10.30;99.90
41838;DHT22;27511;52.042;5.178;2023-02-02T05:17:58;10.30;99.90
41838;DHT22;27511;52.042;5.178;2023-02-02T05:20:23;10.20;99.90
41838;DHT22;27511;52.042;5.178;2023-02-02T05:22:49;10.20;99.90
41838;DHT22;27511;52.042;5.178;2023-02-02T05:25:14;10.40;99.90
41838;DHT22;27511;52.042;5.178;2023-02-02T05:27:44;10.10;99.90
41838;DHT22;27511;52.042;5.178;2023-02-02T05:30:10;10.10;99.90
41838;DHT22;27511;52.042;5.178;2023-02-02T05:32:36;10.20;99.90
41838;DHT22;27511;52.042;5.178;2023-02-02T05:35:01;10.30;99.90
41838;DHT22;27511;52.042;5.178;2023-02-02T05:37:27;10.20;99.90
41838;DHT22;27511;52.042;5.178;2023-02-02T05:39:52;10.20;99.90
41838;DHT22;27511;52.042;5.178;2023-02-02T05:42:18;10.40;99.90
41838;DHT22;27511;52.042;5.178;2023-02-02T05:44:43;10.60;99.90
41838;DHT22;27511;52.042;5.178;2023-02-02T05:47:09;10.40;99.90
41838;DHT22;27511;52.042;5.178;2023-02-02T05:49:34;10.50;99.90
41838;DHT22;27511;52.042;5.178;2023-02-02T05:52:00;10.60;99.90
41838;DHT22;27511;52.042;5.178;2023-02-02T05:54:25;10.50;99.90
41838;DHT22;27511;52.042;5.178;2023-02-02T05:56:51;10.50;99.90
41838;DHT22;27511;52.042;5.178;2023-02-02T05:59:17;10.60;99.90
41838;DHT22;27511;52.042;5.178;2023-02-02T06:01:43;10.60;99.90
41838;DHT22;27511;52.042;5.178;2023-02-02T06:04:09;10.60;99.90
41838;DHT22;27511;52.042;5.178;2023-02-02T06:06:35;10.70;99.90
41838;DHT22;27511;52.042;5.178;2023-02-02T06:09:02;10.70;99.90
41838;DHT22;27511;52.042;5.178;2023-02-02T06:11:28;10.70;99.90
41838;DHT22;27511;52.042;5.178;2023-02-02T06:13:53;10.70;99.90
41838;DHT22;27511;52.042;5.178;2023-02-02T06:16:19;10.60;99.90
41838;DHT22;27511;52.042;5.178;2023-02-02T06:18:44;10.50;99.90
41838;DHT22;27511;52.042;5.178;2023-02-02T06:21:10;10.40;99.90
41838;DHT22;27511;52.042;5.178;2023-02-02T06:23:36;10.50;99.90
41838;DHT22;27511;52.042;5.178;2023-02-02T06:26:01;10.50;99.90
41838;DHT22;27511;52.042;5.178;2023-02-02T06:28:31;10.50;99.90
41838;DHT22;27511;52.042;5.178;2023-02-02T06:31:02;10.50;99.90
41838;DHT22;27511;52.042;5.178;2023-02-02T06:33:28;10.40;99.90
41838;DHT22;27511;52.042;5.178;2023-02-02T06:35:57;10.40;99.90
41838;DHT22;27511;52.042;5.178;2023-02-02T06:38:22;10.50;99.90
41838;DHT22;27511;52.042;5.178;2023-02-02T06:40:48;10.50;99.90
41838;DHT22;27511;52.042;5.178;2023-02-02T06:43:13;10.40;99.90
41838;DHT22;27511;52.042;5.178;2023-02-02T06:45:40;10.40;99.90
41838;DHT22;27511;52.042;5.178;2023-02-02T06:48:06;10.40;99.90
41838;DHT22;27511;52.042;5.178;2023-02-02T06:50:35;10.40;99.90
41838;DHT22;27511;52.042;5.178;2023-02-02T06:53:01;10.30;99.90
41838;DHT22;27511;52.042;5.178;2023-02-02T06:55:26;10.40;99.90
41838;DHT22;27511;52.042;5.178;2023-02-02T06:57:55;10.30;99.90
41838;DHT22;27511;52.042;5.178;2023-02-02T07:00:21;10.20;99.90
41838;DHT22;27511;52.042;5.178;2023-02-02T07:02:47;10.20;99.90
41838;DHT22;27511;52.042;5.178;2023-02-02T07:05:12;10.20;99.90
41838;DHT22;27511;52.042;5.178;2023-02-02T07:07:38;10.20;99.90
41838;DHT22;27511;52.042;5.178;2023-02-02T07:10:03;10.10;99.90
41838;DHT22;27511;52.042;5.178;2023-02-02T07:12:29;10.10;99.90
41838;DHT22;27511;52.042;5.178;2023-02-02T07:14:54;10.10;99.90
41838;DHT22;27511;52.042;5.178;2023-02-02T07:17:20;10.10;99.90
41838;DHT22;27511;52.042;5.178;2023-02-02T07:19:45;10.10;99.90
41838;DHT22;27511;52.042;5.178;2023-02-02T07:22:11;10.00;99.90
41838;DHT22;27511;52.042;5.178;2023-02-02T07:24:36;9.90;99.90
41838;DHT22;27511;52.042;5.178;2023-02-02T07:27:05;10.10;99.90
41838;DHT22;27511;52.042;5.178;2023-02-02T07:29:30;10.00;99.90
41838;DHT22;27511;52.042;5.178;2023-02-02T07:31:56;10.10;99.90
41838;DHT22;27511;52.042;5.178;2023-02-02T07:34:21;10.00;99.90
41838;DHT22;27511;52.042;5.178;2023-02-02T07:36:47;10.00;99.90
41838;DHT22;27511;52.042;5.178;2023-02-02T07:39:12;9.90;99.90
41838;DHT22;27511;52.042;5.178;2023-02-02T07:41:38;9.90;99.90
41838;DHT22;27511;52.042;5.178;2023-02-02T07:44:03;10.00;99.90
41838;DHT22;27511;52.042;5.178;2023-02-02T07:46:29;10.00;99.90
41838;DHT22;27511;52.042;5.178;2023-02-02T07:48:55;10.10;99.90
41838;DHT22;27511;52.042;5.178;2023-02-02T07:51:21;10.10;99.90
41838;DHT22;27511;52.042;5.178;2023-02-02T07:53:47;10.00;99.90
41838;DHT22;27511;52.042;5.178;2023-02-02T07:56:23;10.00;99.90
41838;DHT22;27511;52.042;5.178;2023-02-02T07:58:53;10.00;99.90
41838;DHT22;27511;52.042;5.178;2023-02-02T08:01:19;9.90;99.90
41838;DHT22;27511;52.042;5.178;2023-02-02T08:03:47;10.00;99.90
41838;DHT22;27511;52.042;5.178;2023-02-02T08:06:23;10.10;99.90
41838;DHT22;27511;52.042;5.178;2023-02-02T08:08:51;10.20;99.90
41838;DHT22;27511;52.042;5.178;2023-02-02T08:11:17;10.20;99.90
41838;DHT22;27511;52.042;5.178;2023-02-02T08:13:43;10.20;99.90
41838;DHT22;27511;52.042;5.178;2023-02-02T08:16:10;10.30;99.90
41838;DHT22;27511;52.042;5.178;2023-02-02T08:18:35;10.20;99.90
41838;DHT22;27511;52.042;5.178;2023-02-02T08:21:02;10.30;99.90
41838;DHT22;27511;52.042;5.178;2023-02-02T08:23:28;10.30;99.90
41838;DHT22;27511;52.042;5.178;2023-02-02T08:25:54;10.30;99.90
41838;DHT22;27511;52.042;5.178;2023-02-02T08:28:20;10.20;99.90
41838;DHT22;27511;52.042;5.178;2023-02-02T08:30:45;10.50;99.90
41838;DHT22;27511;52.042;5.178;2023-02-02T08:33:11;10.20;99.90
41838;DHT22;27511;52.042;5.178;2023-02-02T08:35:42;10.20;99.90
41838;DHT22;27511;52.042;5.178;2023-02-02T08:38:08;10.20;99.90
41838;DHT22;27511;52.042;5.178;2023-02-02T08:40:34;10.20;99.90
41838;DHT22;27511;52.042;5.178;2023-02-02T08:42:59;10.20;99.90
41838;DHT22;27511;52.042;5.178;2023-02-02T08:45:25;10.30;99.90
41838;DHT22;27511;52.042;5.178;2023-02-02T08:47:50;10.30;99.90
41838;DHT22;27511;52.042;5.178;2023-02-02T08:50:16;10.30;99.90
41838;DHT22;27511;52.042;5.178;2023-02-02T08:52:42;10.30;99.90
41838;DHT22;27511;52.042;5.178;2023-02-02T08:55:07;10.20;99.90
41838;DHT22;27511;52.042;5.178;2023-02-02T08:57:33;10.40;99.90
41838;DHT22;27511;52.042;5.178;2023-02-02T08:59:59;10.30;99.90
41838;DHT22;27511;52.042;5.178;2023-02-02T09:02:24;10.30;99.90
41838;DHT22;27511;52.042;5.178;2023-02-02T09:04:50;10.40;99.90
41838;DHT22;27511;52.042;5.178;2023-02-02T09:07:15;10.40;99.90
41838;DHT22;27511;52.042;5.178;2023-02-02T09:09:40;10.40;99.90
41838;DHT22;27511;52.042;5.178;2023-02-02T09:12:06;10.50;99.90
41838;DHT22;27511;52.042;5.178;2023-02-02T09:14:31;10.60;99.90
41838;DHT22;27511;52.042;5.178;2023-02-02T09:16:57;10.70;99.90
41838;DHT22;27511;52.042;5.178;2023-02-02T09:19:22;10.60;99.90
41838;DHT22;27511;52.042;5.178;2023-02-02T09:21:48;10.50;99.90
41838;DHT22;27511;52.042;5.178;2023-02-02T09:24:14;10.40;99.90
41838;DHT22;27511;52.042;5.178;2023-02-02T09:26:39;10.60;99.90
41838;DHT22;27511;52.042;5.178;2023-02-02T09:29:06;10.40;99.90
41838;DHT22;27511;52.042;5.178;2023-02-02T09:31:32;10.40;99.90
41838;DHT22;27511;52.042;5.178;2023-02-02T09:33:59;10.40;99.90
41838;DHT22;27511;52.042;5.178;2023-02-02T09:36:25;10.50;99.90
41838;DHT22;27511;52.042;5.178;2023-02-02T09:38:51;10.60;99.90
41838;DHT22;27511;52.042;5.178;2023-02-02T09:49:42;10.60;99.90
41838;DHT22;27511;52.042;5.178;2023-02-02T09:52:11;10.60;99.90
41838;DHT22;27511;52.042;5.178;2023-02-02T09:54:42;10.70;99.90
41838;DHT22;27511;52.042;5.178;2023-02-02T09:57:30;10.60;99.90
41838;DHT22;27511;52.042;5.178;2023-02-02T09:59:54;10.60;99.90
41838;DHT22;27511;52.042;5.178;2023-02-02T10:02:21;10.70;99.90
41838;DHT22;27511;52.042;5.178;2023-02-02T10:04:51;10.80;99.90
41838;DHT22;27511;52.042;5.178;2023-02-02T10:07:20;10.80;99.90
41838;DHT22;27511;52.042;5.178;2023-02-02T10:09:50;10.80;99.90
41838;DHT22;27511;52.042;5.178;2023-02-02T10:22:53;10.80;99.90
41838;DHT22;27511;52.042;5.178;2023-02-02T10:25:20;10.80;99.90
41838;DHT22;27511;52.042;5.178;2023-02-02T10:27:57;10.70;99.90
41838;DHT22;27511;52.042;5.178;2023-02-02T10:30:34;10.60;99.90
41838;DHT22;27511;52.042;5.178;2023-02-02T10:33:05;10.60;99.90
41838;DHT22;27511;52.042;5.178;2023-02-02T10:35:41;10.60;99.90
41838;DHT22;27511;52.042;5.178;2023-02-02T10:38:13;10.80;99.90
41838;DHT22;27511;52.042;5.178;2023-02-02T10:40:54;11.00;99.90
41838;DHT22;27511;52.042;5.178;2023-02-02T10:43:27;10.90;99.90
41838;DHT22;27511;52.042;5.178;2023-02-02T10:46:13;10.90;99.90
41838;DHT22;27511;52.042;5.178;2023-02-02T10:48:40;10.90;99.90
41838;DHT22;27511;52.042;5.178;2023-02-02T10:51:17;10.90;99.90
41838;DHT22;27511;52.042;5.178;2023-02-02T10:53:45;10.90;99.90
41838;DHT22;27511;52.042;5.178;2023-02-02T10:56:15;10.90;99.90
41838;DHT22;27511;52.042;5.178;2023-02-02T11:01:26;10.70;99.90
41838;DHT22;27511;52.042;5.178;2023-02-02T11:03:52;10.90;99.90
41838;DHT22;27511;52.042;5.178;2023-02-02T11:06:37;10.90;99.90
41838;DHT22;27511;52.042;5.178;2023-02-02T11:09:30;11.10;99.90
41838;DHT22;27511;52.042;5.178;2023-02-02T11:14:53;10.90;99.90
41838;DHT22;27511;52.042;5.178;2023-02-02T11:17:21;11.10;99.90
41838;DHT22;27511;52.042;5.178;2023-02-02T11:19:48;11.20;99.90
41838;DHT22;27511;52.042;5.178;2023-02-02T11:22:24;11.30;99.90
41838;DHT22;27511;52.042;5.178;2023-02-02T11:24:50;11.40;99.90
41838;DHT22;27511;52.042;5.178;2023-02-02T11:27:21;11.50;99.90
41838;DHT22;27511;52.042;5.178;2023-02-02T11:29:49;11.50;99.90
41838;DHT22;27511;52.042;5.178;2023-02-02T11:32:17;11.40;99.90
41838;DHT22;27511;52.042;5.178;2023-02-02T11:34:42;11.30;99.90
41838;DHT22;27511;52.042;5.178;2023-02-02T11:39:33;11.20;99.90
41838;DHT22;27511;52.042;5.178;2023-02-02T11:42:20;11.20;99.90
41838;DHT22;27511;52.042;5.178;2023-02-02T11:44:50;11.30;99.90
41838;DHT22;27511;52.042;5.178;2023-02-02T11:47:21;11.30;99.90
41838;DHT22;27511;52.042;5.178;2023-02-02T11:49:49;11.40;99.90
41838;DHT22;27511;52.042;5.178;2023-02-02T11:52:17;11.40;99.90
41838;DHT22;27511;52.042;5.178;2023-02-02T11:54:45;11.40;99.90
41838;DHT22;27511;52.042;5.178;2023-02-02T11:57:14;11.40;99.90
41838;DHT22;27511;52.042;5.178;2023-02-02T11:59:43;11.40;99.90
41838;DHT22;27511;52.042;5.178;2023-02-02T12:04:38;11.50;99.90
41838;DHT22;27511;52.042;5.178;2023-02-02T12:07:16;11.50;99.90
41838;DHT22;27511;52.042;5.178;2023-02-02T12:09:42;11.60;99.90
41838;DHT22;27511;52.042;5.178;2023-02-02T12:12:19;11.60;99.90
41838;DHT22;27511;52.042;5.178;2023-02-02T12:14:54;11.50;99.90
41838;DHT22;27511;52.042;5.178;2023-02-02T12:25:00;11.40;99.90
41838;DHT22;27511;52.042;5.178;2023-02-02T12:32:50;11.40;99.90
41838;DHT22;27511;52.042;5.178;2023-02-02T12:35:36;11.40;99.90
41838;DHT22;27511;52.042;5.178;2023-02-02T12:43:22;11.50;99.90
41838;DHT22;27511;52.042;5.178;2023-02-02T12:48:22;11.50;99.90
41838;DHT22;27511;52.042;5.178;2023-02-02T12:59:23;11.20;99.90
41838;DHT22;27511;52.042;5.178;2023-02-02T13:01:43;11.20;99.90
41838;DHT22;27511;52.042;5.178;2023-02-02T13:06:47;11.20;99.90
41838;DHT22;27511;52.042;5.178;2023-02-02T13:09:16;11.10;99.90
41838;DHT22;27511;52.042;5.178;2023-02-02T13:11:48;11.10;99.90
41838;DHT22;27511;52.042;5.178;2023-02-02T13:14:19;11.10;99.90
41838;DHT22;27511;52.042;5.178;2023-02-02T13:16:49;11.30;99.90
41838;DHT22;27511;52.042;5.178;2023-02-02T13:19:35;11.20;99.90
41838;DHT22;27511;52.042;5.178;2023-02-02T13:22:02;11.10;99.90
41838;DHT22;27511;52.042;5.178;2023-02-02T13:24:33;10.90;99.90
41838;DHT22;27511;52.042;5.178;2023-02-02T13:27:00;10.90;99.90
41838;DHT22;27511;52.042;5.178;2023-02-02T13:29:31;11.00;99.90
41838;DHT22;27511;52.042;5.178;2023-02-02T13:34:58;10.90;99.90
41838;DHT22;27511;52.042;5.178;2023-02-02T13:40:04;10.80;99.90
41838;DHT22;27511;52.042;5.178;2023-02-02T13:42:38;10.80;99.90
41838;DHT22;27511;52.042;5.178;2023-02-02T13:45:30;10.90;99.90
41838;DHT22;27511;52.042;5.178;2023-02-02T13:48:31;10.90;99.90
41838;DHT22;27511;52.042;5.178;2023-02-02T13:56:08;10.70;99.90
41838;DHT22;27511;52.042;5.178;2023-02-02T14:01:08;10.90;99.90
41838;DHT22;27511;52.042;5.178;2023-02-02T14:03:35;10.90;99.90
41838;DHT22;27511;52.042;5.178;2023-02-02T14:06:17;11.00;99.90
41838;DHT22;27511;52.042;5.178;2023-02-02T14:11:19;11.10;99.90
41838;DHT22;27511;52.042;5.178;2023-02-02T14:13:46;11.00;99.90
41838;DHT22;27511;52.042;5.178;2023-02-02T14:18:57;10.90;99.90
41838;DHT22;27511;52.042;5.178;2023-02-02T14:26:45;10.80;99.90
41838;DHT22;27511;52.042;5.178;2023-02-02T14:34:47;11.10;99.90
41838;DHT22;27511;52.042;5.178;2023-02-02T14:45:26;10.70;99.90
41838;DHT22;27511;52.042;5.178;2023-02-02T14:47:53;10.70;99.90
41838;DHT22;27511;52.042;5.178;2023-02-02T14:50:26;10.70;99.90
41838;DHT22;27511;52.042;5.178;2023-02-02T14:52:56;10.70;99.90
41838;DHT22;27511;52.042;5.178;2023-02-02T14:55:22;10.70;99.90
41838;DHT22;27511;52.042;5.178;2023-02-02T14:57:55;10.80;99.90
41838;DHT22;27511;52.042;5.178;2023-02-02T15:00:22;10.90;99.90
41838;DHT22;27511;52.042;5.178;2023-02-02T15:02:49;10.80;99.90
41838;DHT22;27511;52.042;5.178;2023-02-02T15:07:53;10.90;99.90
41838;DHT22;27511;52.042;5.178;2023-02-02T15:10:55;10.90;99.90
41838;DHT22;27511;52.042;5.178;2023-02-02T15:13:05;10.90;99.90
41838;DHT22;27511;52.042;5.178;2023-02-02T15:15:31;10.80;99.90
41838;DHT22;27511;52.042;5.178;2023-02-02T15:17:59;10.80;99.90
41838;DHT22;27511;52.042;5.178;2023-02-02T15:20:31;10.70;99.90
41838;DHT22;27511;52.042;5.178;2023-02-02T15:33:36;10.70;99.90
41838;DHT22;27511;52.042;5.178;2023-02-02T15:36:14;10.70;99.90
41838;DHT22;27511;52.042;5.178;2023-02-02T15:38:40;10.70;99.90
41838;DHT22;27511;52.042;5.178;2023-02-02T15:41:25;10.80;99.90
41838;DHT22;27511;52.042;5.178;2023-02-02T15:43:51;10.80;99.90
41838;DHT22;27511;52.042;5.178;2023-02-02T15:46:24;10.80;99.90
41838;DHT22;27511;52.042;5.178;2023-02-02T15:51:35;10.90;99.90
41838;DHT22;27511;52.042;5.178;2023-02-02T15:54:00;10.90;99.90
41838;DHT22;27511;52.042;5.178;2023-02-02T15:56:27;10.80;99.90
41838;DHT22;27511;52.042;5.178;2023-02-02T15:58:57;10.70;99.90
41838;DHT22;27511;52.042;5.178;2023-02-02T16:01:24;10.80;99.90
41838;DHT22;27511;52.042;5.178;2023-02-02T16:06:15;10.70;99.90
41838;DHT22;27511;52.042;5.178;2023-02-02T16:08:41;10.80;99.90
41838;DHT22;27511;52.042;5.178;2023-02-02T16:11:08;10.80;99.90
41838;DHT22;27511;52.042;5.178;2023-02-02T16:13:34;10.90;99.90
41838;DHT22;27511;52.042;5.178;2023-02-02T16:16:01;10.90;99.90
41838;DHT22;27511;52.042;5.178;2023-02-02T16:18:30;10.90;99.90
41838;DHT22;27511;52.042;5.178;2023-02-02T16:20:56;10.80;99.90
41838;DHT22;27511;52.042;5.178;2023-02-02T16:23:30;10.70;99.90
41838;DHT22;27511;52.042;5.178;2023-02-02T16:25:57;10.80;99.90
41838;DHT22;27511;52.042;5.178;2023-02-02T16:28:23;10.90;99.90
41838;DHT22;27511;52.042;5.178;2023-02-02T16:30:49;11.10;99.90
41838;DHT22;27511;52.042;5.178;2023-02-02T16:35:53;10.90;99.90
41838;DHT22;27511;52.042;5.178;2023-02-02T16:38:32;10.90;99.90
41838;DHT22;27511;52.042;5.178;2023-02-02T16:41:02;10.90;99.90
41838;DHT22;27511;52.042;5.178;2023-02-02T16:43:28;10.90;99.90
41838;DHT22;27511;52.042;5.178;2023-02-02T16:45:57;11.00;99.90
41838;DHT22;27511;52.042;5.178;2023-02-02T16:56:28;11.10;99.90
41838;DHT22;27511;52.042;5.178;2023-02-02T16:58:54;11.00;99.90
41838;DHT22;27511;52.042;5.178;2023-02-02T17:01:30;11.10;99.90
41838;DHT22;27511;52.042;5.178;2023-02-02T17:03:56;11.00;99.90
41838;DHT22;27511;52.042;5.178;2023-02-02T17:06:29;11.00;99.90
41838;DHT22;27511;52.042;5.178;2023-02-02T17:09:33;11.00;99.90
41838;DHT22;27511;52.042;5.178;2023-02-02T17:14:26;11.00;99.90
41838;DHT22;27511;52.042;5.178;2023-02-02T17:16:57;11.00;99.90
41838;DHT22;27511;52.042;5.178;2023-02-02T17:19:31;11.10;99.90
41838;DHT22;27511;52.042;5.178;2023-02-02T17:21:57;11.10;99.90
41838;DHT22;27511;52.042;5.178;2023-02-02T17:24:24;11.10;99.90
41838;DHT22;27511;52.042;5.178;2023-02-02T17:26:50;11.30;99.90
41838;DHT22;27511;52.042;5.178;2023-02-02T17:29:16;11.30;99.90
41838;DHT22;27511;52.042;5.178;2023-02-02T17:31:46;11.40;99.90
41838;DHT22;27511;52.042;5.178;2023-02-02T17:34:11;11.50;99.90
41838;DHT22;27511;52.042;5.178;2023-02-02T17:36:40;11.50;99.90
41838;DHT22;27511;52.042;5.178;2023-02-02T17:39:08;11.50;99.90
41838;DHT22;27511;52.042;5.178;2023-02-02T17:41:34;11.50;99.90
41838;DHT22;27511;52.042;5.178;2023-02-02T17:44:09;11.60;99.90
41838;DHT22;27511;52.042;5.178;2023-02-02T17:46:35;11.70;99.90
41838;DHT22;27511;52.042;5.178;2023-02-02T17:49:00;11.70;99.90
41838;DHT22;27511;52.042;5.178;2023-02-02T17:51:28;11.60;99.90
41838;DHT22;27511;52.042;5.178;2023-02-02T17:53:55;11.60;99.90
41838;DHT22;27511;52.042;5.178;2023-02-02T17:56:24;11.70;99.90
41838;DHT22;27511;52.042;5.178;2023-02-02T17:58:49;11.70;99.90
41838;DHT22;27511;52.042;5.178;2023-02-02T18:01:15;11.60;99.90
41838;DHT22;27511;52.042;5.178;2023-02-02T18:03:43;11.80;99.90
41838;DHT22;27511;52.042;5.178;2023-02-02T18:06:10;11.80;99.90
41838;DHT22;27511;52.042;5.178;2023-02-02T18:08:35;11.90;99.90